Time;durP1;ratioP1;P1;durP2;ratioP2;P2;SDS_P1;SDS_P2;PMS_P1;PMS_P2;Temp;Humidity;BMP_temperature;BMP_pressure;BME280_temperature;BME280_humidity;BME280_pressure;Samples;Min_cycle;Max_cycle;Signal;HPM_P1;HPM_P2
2023/03/21 00:00:04;;;;;;;3.58;1.90;;;8.90;99.90;;;;;;5130794;27;20062;-72
2023/03/21 00:02:30;;;;;;;4.13;2.30;;;8.90;99.90;;;;;;5130621;27;20034;-72
2023/03/21 00:04:56;;;;;;;2.28;1.90;;;8.90;99.90;;;;;;5125718;27;20027;-72
2023/03/21 00:07:21;;;;;;;3.28;1.98;;;8.90;99.90;;;;;;5131853;27;20106;-72
2023/03/21 00:09:47;;;;;;;3.22;2.20;;;8.90;99.90;;;;;;5130012;27;20493;-69
2023/03/21 00:12:13;;;;;;;3.47;1.92;;;8.90;99.90;;;;;;5130746;27;20031;-72
2023/03/21 00:14:38;;;;;;;2.75;2.05;;;8.90;99.90;;;;;;5131658;27;20027;-71
2023/03/21 00:17:04;;;;;;;3.88;1.98;;;8.90;99.90;;;;;;5130329;27;20043;-72
2023/03/21 00:19:29;;;;;;;5.40;2.30;;;8.90;99.90;;;;;;5123587;27;20076;-72
2023/03/21 00:21:56;;;;;;;3.63;2.40;;;8.90;99.90;;;;;;5121772;27;20110;-72
2023/03/21 00:24:22;;;;;;;4.28;2.08;;;8.90;99.90;;;;;;5124976;27;20064;-72
2023/03/21 00:26:49;;;;;;;3.85;2.03;;;8.90;99.90;;;;;;5124636;27;20082;-72
2023/03/21 00:29:15;;;;;;;2.90;2.00;;;8.90;99.90;;;;;;5123928;27;20031;-72
2023/03/21 00:31:41;;;;;;;3.38;2.17;;;8.90;99.90;;;;;;5129365;27;20038;-72
2023/03/21 00:34:07;;;;;;;2.33;1.70;;;8.90;99.90;;;;;;5122520;27;20447;-72
2023/03/21 00:36:32;;;;;;;2.53;1.73;;;8.90;99.90;;;;;;5122134;27;20154;-72
2023/03/21 00:38:59;;;;;;;2.60;2.10;;;8.90;99.90;;;;;;5124788;27;20481;-72
2023/03/21 00:41:25;;;;;;;5.43;2.33;;;8.90;99.90;;;;;;5130391;27;20419;-72
2023/03/21 00:43:54;;;;;;;3.42;2.38;;;8.90;99.90;;;;;;5128513;27;20202;-72
2023/03/21 00:46:19;;;;;;;3.85;2.58;;;8.90;99.90;;;;;;5128502;27;20511;-72
2023/03/21 00:48:45;;;;;;;5.18;2.28;;;8.90;99.90;;;;;;5151327;27;20057;-69
2023/03/21 00:51:24;;;;;;;4.85;2.28;;;8.90;99.90;;;;;;5149927;27;20042;-72
2023/03/21 00:53:51;;;;;;;3.42;2.40;;;8.90;99.90;;;;;;5141242;27;20036;-71
2023/03/21 00:56:16;;;;;;;2.80;1.90;;;8.90;99.90;;;;;;5151764;27;20042;-72
2023/03/21 00:58:42;;;;;;;3.38;2.05;;;8.80;99.90;;;;;;5145645;27;20109;-69
2023/03/21 01:01:08;;;;;;;3.50;2.58;;;8.80;99.90;;;;;;5147748;27;20031;-72
2023/03/21 01:03:41;;;;;;;2.88;2.10;;;8.80;99.90;;;;;;5147427;27;20073;-72
2023/03/21 01:06:12;;;;;;;3.13;2.22;;;8.80;99.90;;;;;;5144407;27;20039;-72
2023/03/21 01:08:40;;;;;;;4.38;2.40;;;8.80;99.90;;;;;;5151915;27;20491;-72
2023/03/21 01:11:09;;;;;;;4.70;2.13;;;8.80;99.90;;;;;;5149677;27;20111;-72
2023/03/21 01:13:35;;;;;;;3.67;2.17;;;8.80;99.90;;;;;;5146707;27;20050;-72
2023/03/21 01:16:04;;;;;;;4.60;2.10;;;8.80;99.90;;;;;;5149097;27;20030;-72
2023/03/21 01:18:30;;;;;;;3.25;2.65;;;8.80;99.90;;;;;;5147178;27;20037;-72
2023/03/21 01:20:59;;;;;;;2.38;2.13;;;8.80;99.90;;;;;;5150070;27;20019;-72
2023/03/21 01:23:26;;;;;;;3.45;2.17;;;8.70;99.90;;;;;;5144054;27;20096;-72
2023/03/21 01:25:52;;;;;;;2.63;2.08;;;8.70;99.90;;;;;;5142258;27;20110;-72
2023/03/21 01:28:18;;;;;;;2.75;1.80;;;8.70;99.90;;;;;;5145596;27;20053;-72
2023/03/21 01:30:45;;;;;;;3.70;2.13;;;8.70;99.90;;;;;;5148505;27;20014;-69
2023/03/21 01:33:11;;;;;;;2.85;2.22;;;8.70;99.90;;;;;;5151737;27;20043;-72
2023/03/21 01:35:37;;;;;;;2.55;2.08;;;8.60;99.90;;;;;;5152688;27;20095;-73
2023/03/21 01:38:02;;;;;;;6.88;2.50;;;8.60;99.90;;;;;;5144527;27;20079;-72
2023/03/21 01:40:30;;;;;;;4.15;2.40;;;8.60;99.90;;;;;;5153796;27;20034;-72
2023/03/21 01:42:55;;;;;;;2.40;1.95;;;8.60;99.90;;;;;;5149575;27;20023;-73
2023/03/21 01:45:58;;;;;;;4.07;2.17;;;8.60;99.90;;;;;;5153132;27;20472;-73
2023/03/21 01:48:26;;;;;;;4.80;2.83;;;8.60;99.90;;;;;;5150611;27;20030;-72
2023/03/21 01:50:52;;;;;;;4.63;3.00;;;8.60;99.90;;;;;;5153062;27;20054;-72
2023/03/21 01:53:28;;;;;;;4.28;3.10;;;8.60;99.90;;;;;;5149439;27;20062;-72
2023/03/21 01:56:15;;;;;;;3.58;2.85;;;8.60;99.90;;;;;;5153711;27;20053;-72
2023/03/21 01:58:42;;;;;;;5.50;2.97;;;8.60;99.90;;;;;;5155236;27;20036;-71
2023/03/21 02:01:08;;;;;;;5.22;3.22;;;8.60;99.90;;;;;;5151628;27;20063;-72
2023/03/21 02:03:37;;;;;;;6.45;3.58;;;8.60;99.90;;;;;;5152943;27;20025;-70
2023/03/21 02:06:13;;;;;;;6.40;3.22;;;8.60;99.90;;;;;;5151990;27;20631;-72
2023/03/21 02:08:39;;;;;;;4.18;3.05;;;8.60;99.90;;;;;;5153682;27;20046;-72
2023/03/21 02:11:06;;;;;;;5.15;3.60;;;8.60;99.90;;;;;;5153044;27;20026;-72
2023/03/21 02:13:32;;;;;;;7.45;4.30;;;8.60;99.90;;;;;;5155342;27;20033;-72
2023/03/21 02:16:00;;;;;;;8.70;4.20;;;8.60;99.90;;;;;;5153234;27;20027;-72
2023/03/21 02:18:36;;;;;;;8.40;4.90;;;8.60;99.90;;;;;;5155176;27;20057;-72
2023/03/21 02:21:35;;;;;;;7.80;4.10;;;8.60;99.90;;;;;;5143917;27;20453;-72
2023/03/21 02:24:26;;;;;;;9.55;5.53;;;8.60;99.90;;;;;;5153125;27;20381;-72
2023/03/21 02:26:55;;;;;;;6.88;4.43;;;8.60;99.90;;;;;;5153482;27;20152;-72
2023/03/21 02:29:48;;;;;;;9.27;4.93;;;8.60;99.90;;;;;;5153680;27;20023;-72
2023/03/21 02:32:36;;;;;;;9.82;4.50;;;8.60;99.90;;;;;;5154487;27;20030;-72
2023/03/21 02:35:38;;;;;;;8.10;4.75;;;8.60;99.90;;;;;;5153314;27;20023;-71
2023/03/21 02:38:09;;;;;;;7.13;4.82;;;8.60;99.90;;;;;;5148493;27;20023;-71
2023/03/21 02:40:49;;;;;;;8.38;4.45;;;8.50;99.90;;;;;;5154089;27;20054;-71
2023/03/21 02:43:34;;;;;;;8.40;4.23;;;8.50;99.90;;;;;;5144189;27;20082;-70
2023/03/21 02:46:09;;;;;;;9.98;5.22;;;8.50;99.90;;;;;;5141830;27;20498;-70
2023/03/21 02:48:38;;;;;;;8.48;4.57;;;8.50;99.90;;;;;;5154351;27;20025;-73
2023/03/21 02:51:06;;;;;;;7.22;4.45;;;8.50;99.90;;;;;;5132889;27;20651;-72
2023/03/21 02:53:36;;;;;;;8.43;4.38;;;8.50;99.90;;;;;;5146138;27;20063;-73
2023/03/21 02:56:09;;;;;;;8.35;5.00;;;8.40;99.90;;;;;;5151433;27;20050;-72
2023/03/21 02:58:37;;;;;;;9.02;4.55;;;8.40;99.90;;;;;;5140978;27;20027;-73
2023/03/21 03:01:03;;;;;;;8.50;4.60;;;8.40;99.90;;;;;;5141862;27;20032;-70
2023/03/21 03:03:29;;;;;;;6.85;4.20;;;8.40;99.90;;;;;;5147885;27;20027;-70
2023/03/21 03:05:57;;;;;;;6.78;4.05;;;8.40;99.90;;;;;;5149697;27;20370;-70
2023/03/21 03:08:31;;;;;;;7.18;4.15;;;8.40;99.90;;;;;;5153630;27;20027;-71
2023/03/21 03:11:23;;;;;;;6.20;3.08;;;8.40;99.90;;;;;;5151054;27;20022;-71
2023/03/21 03:14:18;;;;;;;7.55;3.55;;;8.40;99.90;;;;;;5149153;27;20497;-70
2023/03/21 03:17:08;;;;;;;5.57;3.20;;;8.40;99.90;;;;;;5140493;27;20045;-71
2023/03/21 03:19:46;;;;;;;5.47;3.13;;;8.40;99.90;;;;;;5152842;27;20477;-71
2023/03/21 03:22:26;;;;;;;5.05;2.90;;;8.40;99.90;;;;;;5145517;27;20042;-73
2023/03/21 03:24:56;;;;;;;5.13;3.20;;;8.30;99.90;;;;;;5152218;27;20155;-72
2023/03/21 03:27:30;;;;;;;6.97;2.88;;;8.40;99.90;;;;;;5147840;27;20080;-72
2023/03/21 03:29:59;;;;;;;3.55;2.45;;;8.30;99.90;;;;;;5146212;27;20035;-72
2023/03/21 03:32:47;;;;;;;3.80;2.80;;;8.30;99.90;;;;;;5153283;27;20037;-72
2023/03/21 03:35:16;;;;;;;3.55;2.42;;;8.40;99.90;;;;;;5143132;27;20043;-72
2023/03/21 03:37:46;;;;;;;4.55;3.10;;;8.40;99.90;;;;;;5146116;27;20050;-70
2023/03/21 03:40:19;;;;;;;4.30;2.53;;;8.30;99.90;;;;;;5150317;27;20030;-72
2023/03/21 03:42:47;;;;;;;3.47;2.50;;;8.40;99.90;;;;;;5140928;27;20027;-67
2023/03/21 03:45:13;;;;;;;4.53;2.60;;;8.40;99.90;;;;;;5147894;27;20058;-71
2023/03/21 03:48:00;;;;;;;4.90;2.47;;;8.40;99.90;;;;;;5148782;27;20174;-70
2023/03/21 03:50:33;;;;;;;5.22;2.67;;;8.30;99.90;;;;;;5139656;27;20030;-72
2023/03/21 03:53:14;;;;;;;7.80;2.83;;;8.30;99.90;;;;;;5147482;27;20616;-71
2023/03/21 03:55:40;;;;;;;2.40;2.20;;;8.30;99.90;;;;;;5144852;27;20121;-71
2023/03/21 03:58:06;;;;;;;3.55;2.63;;;8.30;99.90;;;;;;5142694;27;20023;-71
2023/03/21 04:00:32;;;;;;;4.10;2.15;;;8.30;99.90;;;;;;5152486;27;20110;-71
2023/03/21 04:02:58;;;;;;;4.97;2.60;;;8.30;99.90;;;;;;5150423;27;20064;-72
2023/03/21 04:05:25;;;;;;;3.58;2.25;;;8.20;99.90;;;;;;5152273;27;20058;-72
2023/03/21 04:07:51;;;;;;;3.53;2.30;;;8.20;99.90;;;;;;5151772;27;20106;-71
2023/03/21 04:10:17;;;;;;;3.65;2.35;;;8.20;99.90;;;;;;5151534;27;20133;-71
2023/03/21 04:12:43;;;;;;;4.45;2.65;;;8.20;99.90;;;;;;5145728;27;20023;-69
2023/03/21 04:15:09;;;;;;;3.75;2.33;;;8.20;99.90;;;;;;5151890;27;20434;-71
2023/03/21 04:17:35;;;;;;;3.08;2.10;;;8.10;99.90;;;;;;5148671;27;20065;-71
2023/03/21 04:20:01;;;;;;;2.22;1.98;;;8.10;99.90;;;;;;5146737;27;20046;-72
2023/03/21 04:22:27;;;;;;;3.10;2.00;;;8.00;99.90;;;;;;5151207;27;20037;-71
2023/03/21 04:24:52;;;;;;;2.70;2.10;;;8.10;99.90;;;;;;5139514;27;20027;-71
2023/03/21 04:27:18;;;;;;;4.85;2.45;;;8.00;99.90;;;;;;5143031;27;20058;-72
2023/03/21 04:29:44;;;;;;;3.28;2.35;;;8.00;99.90;;;;;;5151244;27;20058;-68
2023/03/21 04:32:16;;;;;;;3.58;2.42;;;7.90;99.90;;;;;;5151447;27;20061;-70
2023/03/21 04:34:48;;;;;;;2.50;2.17;;;7.90;99.90;;;;;;5150807;27;20030;-70
2023/03/21 04:37:17;;;;;;;3.15;2.40;;;7.80;99.90;;;;;;5143802;27;20035;-70
2023/03/21 04:39:45;;;;;;;3.08;2.35;;;7.70;99.90;;;;;;5151605;27;20026;-68
2023/03/21 04:42:13;;;;;;;3.90;2.40;;;7.60;99.90;;;;;;5144422;27;20026;-70
2023/03/21 04:44:39;;;;;;;4.40;2.60;;;7.60;99.90;;;;;;5150127;27;20035;-71
2023/03/21 04:47:05;;;;;;;4.05;2.42;;;7.50;99.90;;;;;;5150732;27;20062;-71
2023/03/21 04:49:31;;;;;;;5.07;2.40;;;7.50;99.90;;;;;;5151648;27;20096;-71
2023/03/21 04:51:57;;;;;;;2.53;2.15;;;7.40;99.90;;;;;;5143044;27;20035;-70
2023/03/21 04:54:23;;;;;;;4.38;2.50;;;7.40;99.90;;;;;;5145440;27;20023;-72
2023/03/21 04:56:50;;;;;;;3.47;2.35;;;7.40;99.90;;;;;;5146620;27;20082;-71
2023/03/21 04:59:17;;;;;;;2.40;2.13;;;7.30;99.90;;;;;;5146065;27;20023;-71
2023/03/21 05:01:43;;;;;;;3.55;2.10;;;7.30;99.90;;;;;;5144342;27;20023;-69
2023/03/21 05:04:10;;;;;;;3.15;1.80;;;7.40;99.90;;;;;;5142998;27;20023;-71
2023/03/21 05:06:36;;;;;;;5.32;2.28;;;7.40;99.90;;;;;;5151791;27;20027;-73
2023/03/21 05:09:06;;;;;;;3.70;2.38;;;7.30;99.90;;;;;;5144371;27;20029;-71
2023/03/21 05:11:36;;;;;;;;;;;7.30;99.90;;;;;;5142796;27;20065;-70
2023/03/21 05:14:02;;;;;;;3.58;2.03;;;7.30;99.90;;;;;;5146577;27;19978;-71
2023/03/21 05:16:29;;;;;;;2.03;1.67;;;7.30;99.90;;;;;;5151308;27;20035;-70
2023/03/21 05:18:57;;;;;;;2.78;1.58;;;7.30;99.90;;;;;;5150156;27;20071;-70
2023/03/21 05:21:23;;;;;;;4.97;2.00;;;7.20;99.90;;;;;;5145339;27;20693;-71
2023/03/21 05:23:57;;;;;;;2.22;1.60;;;7.20;99.90;;;;;;5148956;27;20042;-71
2023/03/21 05:26:23;;;;;;;6.78;2.10;;;7.20;99.90;;;;;;5147277;27;20057;-72
2023/03/21 05:28:49;;;;;;;3.10;2.30;;;7.20;99.90;;;;;;5150103;27;20030;-72
2023/03/21 05:31:19;;;;;;;2.28;1.95;;;7.20;99.90;;;;;;5150791;27;20030;-72
2023/03/21 05:33:45;;;;;;;3.35;1.95;;;7.20;99.90;;;;;;5147557;27;20052;-69
2023/03/21 05:36:11;;;;;;;4.05;2.10;;;7.20;99.90;;;;;;5151299;27;20509;-73
2023/03/21 05:38:41;;;;;;;4.85;2.97;;;7.20;99.90;;;;;;5149354;27;20026;-70
2023/03/21 05:41:07;;;;;;;5.47;2.78;;;7.20;99.90;;;;;;5144079;27;20031;-69
2023/03/21 05:43:33;;;;;;;3.50;2.25;;;7.20;99.90;;;;;;5153572;27;20489;-71
2023/03/21 05:45:58;;;;;;;4.97;2.55;;;7.30;99.90;;;;;;5145141;27;20046;-71
2023/03/21 05:48:24;;;;;;;4.60;2.97;;;7.30;99.90;;;;;;5149359;27;20159;-71
2023/03/21 05:50:49;;;;;;;3.80;2.88;;;7.40;99.90;;;;;;5149084;27;20402;-70
2023/03/21 05:53:15;;;;;;;4.80;2.97;;;7.40;99.90;;;;;;5143357;27;20027;-71
2023/03/21 05:55:41;;;;;;;6.05;2.72;;;7.40;99.90;;;;;;5148421;27;20052;-71
2023/03/21 05:58:06;;;;;;;5.18;2.40;;;7.50;99.90;;;;;;5146267;27;20397;-71
2023/03/21 06:00:32;;;;;;;7.03;2.67;;;7.60;99.90;;;;;;5146432;27;20101;-72
2023/03/21 06:02:57;;;;;;;3.42;1.92;;;7.60;99.90;;;;;;5143566;27;20027;-70
2023/03/21 06:05:23;;;;;;;2.17;1.73;;;7.70;99.90;;;;;;5145437;27;20027;-72
2023/03/21 06:07:49;;;;;;;3.22;2.28;;;7.80;99.90;;;;;;5145189;27;20532;-72
2023/03/21 06:10:14;;;;;;;4.00;1.70;;;7.90;99.90;;;;;;5148041;27;20030;-71
2023/03/21 06:12:41;;;;;;;2.90;1.92;;;7.90;99.90;;;;;;5147866;27;20418;-70
2023/03/21 06:15:08;;;;;;;4.47;2.30;;;8.10;99.90;;;;;;5150004;27;20019;-71
2023/03/21 06:17:33;;;;;;;2.72;2.05;;;8.10;99.90;;;;;;5148097;27;20031;-71
2023/03/21 06:20:03;;;;;;;3.13;2.10;;;8.10;99.90;;;;;;5151062;27;20031;-78
2023/03/21 06:22:30;;;;;;;3.58;2.55;;;8.10;99.90;;;;;;5147649;27;20031;-73
2023/03/21 06:24:55;;;;;;;4.72;2.30;;;8.20;99.90;;;;;;5152908;27;20027;-73
2023/03/21 06:27:21;;;;;;;4.75;3.00;;;8.20;99.90;;;;;;5145201;27;20053;-71
2023/03/21 06:29:47;;;;;;;4.18;3.22;;;8.30;99.90;;;;;;5149873;27;20028;-74
2023/03/21 06:32:13;;;;;;;6.15;2.80;;;8.30;99.90;;;;;;5154247;27;20027;-74
2023/03/21 06:34:38;;;;;;;3.40;3.00;;;8.40;99.90;;;;;;5147111;27;20505;-72
2023/03/21 06:37:04;;;;;;;5.97;3.10;;;8.30;99.90;;;;;;5142868;27;20053;-78
2023/03/21 06:39:31;;;;;;;8.25;3.67;;;8.30;99.90;;;;;;5152372;27;20392;-76
2023/03/21 06:41:58;;;;;;;5.45;3.00;;;8.30;99.90;;;;;;5148732;27;20101;-77
2023/03/21 06:44:24;;;;;;;4.40;2.90;;;8.30;99.90;;;;;;5155737;27;20023;-74
2023/03/21 06:46:50;;;;;;;3.83;3.00;;;8.30;99.90;;;;;;5153147;27;20158;-76
2023/03/21 06:49:17;;;;;;;6.55;3.47;;;8.30;99.90;;;;;;5136181;27;20036;-79
2023/03/21 06:51:42;;;;;;;5.72;3.85;;;8.20;99.90;;;;;;5144729;27;20054;-74
2023/03/21 06:54:08;;;;;;;5.05;3.58;;;8.30;99.90;;;;;;5152575;27;20075;-80
2023/03/21 06:56:34;;;;;;;4.22;3.28;;;8.30;99.90;;;;;;5148082;27;20038;-78
2023/03/21 06:58:59;;;;;;;5.65;3.00;;;8.20;99.90;;;;;;5150085;27;20083;-79
2023/03/21 07:01:26;;;;;;;4.65;2.85;;;8.30;99.90;;;;;;5151574;27;20101;-79
2023/03/21 07:03:56;;;;;;;3.67;2.80;;;8.30;99.90;;;;;;5152768;27;20071;-77
2023/03/21 07:06:22;;;;;;;6.07;3.13;;;8.30;99.90;;;;;;5143540;27;20026;-78
2023/03/21 07:08:47;;;;;;;5.57;2.67;;;8.40;99.90;;;;;;5146062;27;20084;-73
2023/03/21 07:11:13;;;;;;;6.35;2.97;;;8.50;99.90;;;;;;5149047;27;20023;-71
2023/03/21 07:13:38;;;;;;;3.42;2.58;;;8.60;99.90;;;;;;5150785;27;20061;-73
2023/03/21 07:16:05;;;;;;;5.15;2.97;;;8.80;99.90;;;;;;5150614;27;20563;-69
2023/03/21 07:18:31;;;;;;;5.80;3.22;;;8.90;99.90;;;;;;5150849;27;20022;-70
2023/03/21 07:20:57;;;;;;;6.30;3.28;;;9.10;99.90;;;;;;5151900;27;20050;-71
2023/03/21 07:23:24;;;;;;;6.20;3.38;;;9.20;99.90;;;;;;5147573;27;20058;-69
2023/03/21 07:25:51;;;;;;;10.52;3.88;;;9.30;99.90;;;;;;5146853;27;20557;-69
2023/03/21 07:28:17;;;;;;;5.07;3.38;;;9.50;99.90;;;;;;5144499;27;20074;-69
2023/03/21 07:30:44;;;;;;;4.10;3.03;;;9.60;99.90;;;;;;5141336;27;20047;-68
2023/03/21 07:33:10;;;;;;;6.15;3.60;;;9.70;99.90;;;;;;5146087;27;20066;-69
2023/03/21 07:35:36;;;;;;;6.30;4.20;;;9.80;99.90;;;;;;5146206;27;20044;-70
2023/03/21 07:38:03;;;;;;;7.10;4.03;;;9.80;99.90;;;;;;5145460;27;20227;-70
2023/03/21 07:40:29;;;;;;;9.20;4.43;;;9.80;99.90;;;;;;5142008;27;20730;-70
2023/03/21 07:42:55;;;;;;;8.45;4.50;;;9.80;99.90;;;;;;5151446;27;20038;-69
2023/03/21 07:45:22;;;;;;;8.52;4.30;;;9.80;99.90;;;;;;5146469;27;20417;-69
2023/03/21 07:47:48;;;;;;;8.07;5.00;;;9.80;99.90;;;;;;5137397;27;20435;-69
2023/03/21 07:50:14;;;;;;;10.18;4.53;;;9.90;99.90;;;;;;5151978;27;20034;-70
2023/03/21 07:52:40;;;;;;;11.48;4.35;;;9.90;99.90;;;;;;5149572;27;20034;-70
2023/03/21 07:55:06;;;;;;;6.78;4.25;;;10.00;99.90;;;;;;5143302;27;20473;-70
2023/03/21 07:57:32;;;;;;;6.63;4.30;;;10.10;99.90;;;;;;5149437;27;20098;-71
2023/03/21 07:59:58;;;;;;;5.50;4.07;;;10.20;99.90;;;;;;5146151;27;20136;-70
2023/03/21 08:02:24;;;;;;;10.20;4.82;;;10.20;99.90;;;;;;5150418;27;20476;-70
2023/03/21 08:04:50;;;;;;;8.20;4.50;;;10.30;99.90;;;;;;5145796;27;20030;-70
2023/03/21 08:07:15;;;;;;;8.55;4.45;;;10.50;99.90;;;;;;5152673;27;20033;-68
2023/03/21 08:09:42;;;;;;;9.68;4.35;;;10.60;99.90;;;;;;5145219;27;20046;-70
2023/03/21 08:12:10;;;;;;;5.72;3.45;;;10.70;99.90;;;;;;5145417;27;20038;-70
2023/03/21 08:14:36;;;;;;;8.90;4.55;;;10.80;99.90;;;;;;5146960;27;20457;-71
2023/03/21 08:17:03;;;;;;;6.95;3.60;;;10.80;99.90;;;;;;5145089;27;20038;-70
2023/03/21 08:19:29;;;;;;;4.93;3.47;;;10.90;99.90;;;;;;5149484;27;20023;-70
2023/03/21 08:21:58;;;;;;;7.60;3.65;;;11.00;99.90;;;;;;5149644;27;20041;-70
2023/03/21 08:24:24;;;;;;;6.40;3.92;;;11.10;99.90;;;;;;5152023;27;20037;-71
2023/03/21 08:26:50;;;;;;;5.90;3.50;;;11.20;99.90;;;;;;5151149;27;20043;-70
2023/03/21 08:29:16;;;;;;;5.85;3.60;;;11.30;99.90;;;;;;5152397;27;20026;-71
2023/03/21 08:31:41;;;;;;;4.80;3.45;;;11.40;99.90;;;;;;5149657;27;20030;-71
2023/03/21 08:34:07;;;;;;;6.53;3.17;;;11.60;99.90;;;;;;5143578;27;20065;-71
2023/03/21 08:36:35;;;;;;;7.30;3.80;;;11.80;99.90;;;;;;5147340;27;20461;-70
2023/03/21 08:39:05;;;;;;;6.95;4.10;;;11.90;99.90;;;;;;5147966;27;20393;-71
2023/03/21 08:41:32;;;;;;;9.27;4.53;;;12.00;99.90;;;;;;5150954;27;20023;-70
2023/03/21 08:43:57;;;;;;;8.32;3.83;;;12.00;99.90;;;;;;5146995;27;20038;-70
2023/03/21 08:46:23;;;;;;;8.75;4.05;;;12.10;99.90;;;;;;5151133;27;20043;-72
2023/03/21 08:48:49;;;;;;;6.68;4.57;;;12.20;99.90;;;;;;5151334;27;20030;-71
2023/03/21 08:51:14;;;;;;;9.23;4.45;;;12.40;99.90;;;;;;5144421;27;20030;-71
2023/03/21 08:53:43;;;;;;;8.45;4.28;;;12.60;99.90;;;;;;5150403;27;20026;-71
2023/03/21 08:56:09;;;;;;;5.68;3.58;;;12.60;99.90;;;;;;5148387;27;20081;-71
2023/03/21 08:58:35;;;;;;;6.65;3.80;;;12.70;99.90;;;;;;5148913;27;20023;-71
2023/03/21 09:01:02;;;;;;;17.08;3.83;;;12.80;99.90;;;;;;5153356;27;20046;-71
2023/03/21 09:03:29;;;;;;;9.25;4.72;;;12.70;99.90;;;;;;5156224;27;20030;-71
2023/03/21 09:05:55;;;;;;;8.65;3.95;;;12.90;99.90;;;;;;5156758;27;20034;-71
2023/03/21 09:08:22;;;;;;;5.78;3.67;;;13.10;99.90;;;;;;5158780;27;20079;-70
2023/03/21 09:10:52;;;;;;;15.75;3.85;;;13.20;99.90;;;;;;5149426;27;20023;-70
2023/03/21 09:13:17;;;;;;;5.95;2.95;;;13.20;99.90;;;;;;5148209;27;20041;-70
2023/03/21 09:15:44;;;;;;;6.75;3.03;;;13.20;99.90;;;;;;5156605;27;20095;-68
2023/03/21 09:18:13;;;;;;;7.68;3.58;;;13.30;99.90;;;;;;5157250;27;20038;-70
2023/03/21 09:20:41;;;;;;;6.30;3.60;;;13.40;99.90;;;;;;5155898;27;20023;-72
2023/03/21 09:23:12;;;;;;;5.53;3.20;;;13.60;99.90;;;;;;5149189;27;20087;-72
2023/03/21 09:25:37;;;;;;;;;;;13.70;99.90;;;;;;5150032;27;20394;-70
2023/03/21 09:28:04;;;;;;;6.65;2.60;;;13.80;99.90;;;;;;5148177;27;19907;-71
2023/03/21 09:30:31;;;;;;;7.53;2.60;;;14.00;99.90;;;;;;5153897;27;20139;-70
2023/03/21 09:32:59;;;;;;;4.35;2.10;;;14.10;99.90;;;;;;5157058;27;20029;-71
2023/03/21 09:35:26;;;;;;;1.70;1.27;;;14.20;99.90;;;;;;5157948;27;20384;-71
2023/03/21 09:37:52;;;;;;;1.92;1.30;;;14.30;97.60;;;;;;5151259;27;20023;-70
2023/03/21 09:40:29;;;;;;;1.55;1.10;;;14.50;95.70;;;;;;5153408;27;20033;-71
2023/03/21 09:43:05;;;;;;;3.25;1.30;;;14.50;95.10;;;;;;5147429;27;20027;-71
2023/03/21 09:45:43;;;;;;;2.83;1.05;;;14.70;94.50;;;;;;5153596;27;20465;-71
2023/03/21 09:48:21;;;;;;;1.35;1.15;;;14.80;93.90;;;;;;5153939;27;21186;-71
2023/03/21 09:50:47;;;;;;;2.00;1.67;;;15.00;93.80;;;;;;5145322;27;20026;-68
2023/03/21 09:53:34;;;;;;;1.98;1.42;;;15.20;93.10;;;;;;5146317;27;20027;-70
2023/03/21 09:56:01;;;;;;;3.15;1.15;;;15.40;93.40;;;;;;5155208;27;20031;-70
2023/03/21 09:58:35;;;;;;;1.60;1.10;;;15.60;91.90;;;;;;5157514;27;20130;-70
2023/03/21 10:01:31;;;;;;;4.25;1.25;;;15.80;91.50;;;;;;5154469;27;20537;-71
2023/03/21 10:04:00;;;;;;;2.35;1.10;;;16.00;91.30;;;;;;5146077;27;20030;-70
2023/03/21 10:06:30;;;;;;;1.73;1.20;;;16.30;90.70;;;;;;5149356;27;20038;-71
2023/03/21 10:09:13;;;;;;;1.65;1.13;;;16.60;90.00;;;;;;5148748;27;20056;-71
2023/03/21 10:11:57;;;;;;;2.50;1.15;;;16.80;90.40;;;;;;5145418;27;20106;-70
2023/03/21 10:14:39;;;;;;;4.45;2.05;;;16.90;89.50;;;;;;5149154;27;20606;-71
2023/03/21 10:17:23;;;;;;;1.40;1.10;;;17.10;86.80;;;;;;5146128;27;20031;-71
2023/03/21 10:19:57;;;;;;;1.30;1.02;;;17.20;87.20;;;;;;5148105;27;20035;-71
2023/03/21 10:22:23;;;;;;;1.83;1.10;;;17.20;86.60;;;;;;5143163;27;20661;-69
2023/03/21 10:24:49;;;;;;;3.40;1.08;;;17.40;87.20;;;;;;5144246;27;20023;-68
2023/03/21 10:27:15;;;;;;;4.53;1.60;;;17.50;86.00;;;;;;5146399;27;20079;-70
2023/03/21 10:29:44;;;;;;;9.52;1.77;;;17.50;87.70;;;;;;5149781;27;20034;-70
2023/03/21 10:32:14;;;;;;;10.05;2.58;;;17.50;90.00;;;;;;5150182;27;20116;-70
2023/03/21 10:34:44;;;;;;;4.03;1.98;;;17.60;90.10;;;;;;5153725;27;20167;-69
2023/03/21 10:37:11;;;;;;;6.75;2.80;;;17.70;90.40;;;;;;5151292;27;20163;-70
2023/03/21 10:39:38;;;;;;;6.45;2.45;;;17.70;90.20;;;;;;5144552;27;20512;-72
2023/03/21 10:42:04;;;;;;;3.58;1.88;;;17.60;90.20;;;;;;5143856;27;20479;-70
2023/03/21 10:44:32;;;;;;;4.22;2.42;;;17.60;90.50;;;;;;5153602;27;20030;-70
2023/03/21 10:47:07;;;;;;;6.00;1.65;;;17.70;91.00;;;;;;5148634;27;20062;-70
2023/03/21 10:49:34;;;;;;;1.85;1.50;;;18.00;90.50;;;;;;5150496;27;20019;-70
2023/03/21 10:52:12;;;;;;;5.38;1.48;;;18.10;87.20;;;;;;5142825;27;20031;-70
2023/03/21 10:54:39;;;;;;;7.03;1.48;;;18.30;91.10;;;;;;5150791;27;20370;-70
2023/03/21 10:57:13;;;;;;;3.65;1.52;;;18.40;90.80;;;;;;5146799;27;20038;-69
2023/03/21 10:59:46;;;;;;;1.20;0.95;;;18.50;89.00;;;;;;5152538;27;20042;-71
2023/03/21 11:02:24;;;;;;;3.28;1.17;;;18.60;89.00;;;;;;5151067;27;20026;-70
2023/03/21 11:04:52;;;;;;;2.13;1.10;;;18.70;87.00;;;;;;5145749;27;20030;-70
2023/03/21 11:07:18;;;;;;;3.90;1.40;;;18.80;86.70;;;;;;5152662;27;20456;-71
2023/03/21 11:09:54;;;;;;;3.78;1.13;;;18.90;85.50;;;;;;5149999;27;20070;-67
2023/03/21 11:12:36;;;;;;;1.25;1.13;;;19.00;83.70;;;;;;5137118;27;20030;-72
2023/03/21 11:15:39;;;;;;;4.03;1.40;;;18.90;83.20;;;;;;5150908;27;20122;-71
2023/03/21 11:18:25;;;;;;;6.63;1.10;;;19.00;83.70;;;;;;5151851;27;20037;-68
2023/03/21 11:20:57;;;;;;;2.10;0.95;;;19.10;81.40;;;;;;5150662;27;20107;-69
2023/03/21 11:23:29;;;;;;;1.00;0.80;;;19.30;81.00;;;;;;5137135;27;20114;-70
2023/03/21 11:25:57;;;;;;;1.02;0.90;;;19.40;79.40;;;;;;5141349;27;20489;-69
2023/03/21 11:28:27;;;;;;;1.88;1.40;;;19.30;78.70;;;;;;5145912;27;20602;-72
2023/03/21 11:30:56;;;;;;;2.05;0.80;;;19.30;78.20;;;;;;5134080;27;20359;-72
2023/03/21 11:33:26;;;;;;;0.80;0.80;;;19.10;78.20;;;;;;5140497;27;20106;-70
2023/03/21 11:36:22;;;;;;;2.00;0.85;;;19.10;77.70;;;;;;5148008;27;20032;-69
2023/03/21 11:38:51;;;;;;;1.80;1.00;;;18.90;78.20;;;;;;5135868;27;20045;-68
2023/03/21 11:41:31;;;;;;;2.92;1.02;;;18.90;77.90;;;;;;5149407;27;20152;-73
2023/03/21 11:43:57;;;;;;;1.40;0.80;;;18.80;78.20;;;;;;5147771;27;20134;-72
2023/03/21 11:46:27;;;;;;;1.42;0.70;;;18.90;77.30;;;;;;5151765;27;20043;-76
2023/03/21 11:48:55;;;;;;;1.27;0.68;;;18.90;76.40;;;;;;5152207;27;20023;-73
2023/03/21 11:51:56;;;;;;;2.55;0.93;;;18.80;76.40;;;;;;5141002;27;20027;-79
2023/03/21 11:54:51;;;;;;;1.70;0.70;;;18.70;75.70;;;;;;5077259;28;20051;-75
2023/03/21 11:57:26;;;;;;;1.33;1.05;;;18.60;75.00;;;;;;5140078;27;20107;-76
2023/03/21 12:00:01;;;;;;;2.08;0.85;;;18.50;75.60;;;;;;5133550;27;20034;-75
2023/03/21 12:02:55;;;;;;;1.17;0.88;;;18.50;75.30;;;;;;5152822;27;20026;-80
2023/03/21 12:05:58;;;;;;;1.98;0.80;;;18.50;75.20;;;;;;5143944;27;20026;-68
2023/03/21 12:08:24;;;;;;;0.85;0.80;;;18.30;75.40;;;;;;5142789;27;20029;-70
2023/03/21 12:11:10;;;;;;;1.30;1.00;;;18.20;75.40;;;;;;5140961;27;20110;-70
2023/03/21 12:14:01;;;;;;;1.98;0.77;;;18.20;74.50;;;;;;5150582;27;20038;-71
2023/03/21 12:16:42;;;;;;;2.38;1.00;;;18.20;74.80;;;;;;5143443;27;20025;-71
2023/03/21 12:19:14;;;;;;;3.40;1.92;;;18.40;76.90;;;;;;5141063;27;20039;-71
2023/03/21 12:21:47;;;;;;;4.10;2.05;;;18.40;79.30;;;;;;5143031;27;20074;-71
2023/03/21 12:24:23;;;;;;;4.07;1.90;;;18.50;80.10;;;;;;5145092;27;20018;-72
2023/03/21 12:26:59;;;;;;;3.63;2.15;;;18.40;81.10;;;;;;5125309;27;20152;-69
2023/03/21 12:29:48;;;;;;;4.53;2.05;;;18.50;81.20;;;;;;5148294;27;20038;-71
2023/03/21 12:32:39;;;;;;;4.28;2.17;;;18.50;79.90;;;;;;5131010;27;20157;-70
2023/03/21 12:35:14;;;;;;;3.47;2.30;;;18.50;80.50;;;;;;5138093;27;20082;-70
2023/03/21 12:37:59;;;;;;;4.15;2.22;;;18.50;80.90;;;;;;5151709;27;20039;-70
2023/03/21 12:40:49;;;;;;;4.32;2.53;;;18.40;81.20;;;;;;5140253;27;20113;-71
2023/03/21 12:43:20;;;;;;;3.13;2.25;;;18.30;81.50;;;;;;5137182;27;20031;-69
2023/03/21 12:45:49;;;;;;;4.57;2.53;;;18.20;81.70;;;;;;5137686;27;20099;-68
2023/03/21 12:48:36;;;;;;;4.95;2.03;;;18.10;82.20;;;;;;5150639;27;20149;-70
2023/03/21 12:51:06;;;;;;;3.13;2.05;;;18.10;83.00;;;;;;5140159;27;20095;-71
2023/03/21 12:53:46;;;;;;;5.22;2.50;;;18.30;81.60;;;;;;5142068;27;20015;-70
2023/03/21 12:56:19;;;;;;;4.07;2.42;;;18.40;81.00;;;;;;5143833;27;20126;-70
2023/03/21 12:58:51;;;;;;;7.75;3.03;;;18.40;81.60;;;;;;5145480;27;20080;-68
2023/03/21 13:01:18;;;;;;;2.70;2.08;;;18.40;81.60;;;;;;5145205;27;20031;-70
2023/03/21 13:03:51;;;;;;;4.30;2.10;;;18.40;81.40;;;;;;5143722;27;20085;-68
2023/03/21 13:06:20;;;;;;;3.80;1.98;;;18.70;80.90;;;;;;5140237;27;20437;-70
2023/03/21 13:08:50;;;;;;;4.63;2.10;;;19.00;79.80;;;;;;5143147;27;20477;-68